West Willow, Pennsylvania
Current Conditions -  °F | °C
As of 7:53 AM on Saturday 22 Nov 2014 (Local Time) from KLNS Reporting Station
Haze Haze  
Wind Chill: 18°   Ceiling: Unl
Heat Index: 18°   Visibility: 6mi
Dew Point: 13°   Wind: 0mph
Humidity: 81%   Direction: NA
Pressure: 30.48"   Gusts: NA
Location:  39.97°N, 76.29°W
Report Text: KLNS 221253Z 00000KT 6SM HZ CLR M08/M11 A3048 RMK AO2 SLP329 T10781106
Loading
Personal Weather Stations






























Interactive Weather Map New forecast layout! Learn more

10-Day Weather Forecast

Advertisements
Track Severe Weather on mobile